Terminal Aerodrome Forecast
Issued by NWS Upton, NY

Home | Current Version | Previous Version | Text Only | Print | Product List | Glossary On
Versions: 1 2 3 4 5 6 7 8 9 10 11 12 13 14 15 16 17 18 19 20 21 22 23 24 25 26 27 28 29 30 31 32 33 34 35
000
FTUS41 KOKX 171100
TAFJFK
TAF
KJFK 171124Z 1712/1818 36005KT P6SM FEW050
     FM171500 VRB04KT P6SM SCT050
     FM171700 18010KT P6SM SCT050
     FM180200 21005KT P6SM SCT070
     FM180600 25004KT P6SM SCT070 SCT250
     FM181300 32007KT P6SM FEW050 SCT250=

USA.gov is the U.S. government's official web portal to all federal, state and local government web resources and services.